Time;durP1;ratioP1;P1;durP2;ratioP2;P2;SDS_P1;SDS_P2;PMS_P1;PMS_P2;Temp;Humidity;BMP_temperature;BMP_pressure;BME280_temperature;BME280_humidity;BME280_pressure;Samples;Min_cycle;Max_cycle;Signal;HPM_P1;HPM_P2
2022/10/01 00:00:46;;;;;;;;;2.67;1.00;;;;;15.49;100.00;100488.00;5056663;28;45491;-69
2022/10/01 00:03:12;;;;;;;;;1.00;1.00;;;;;15.46;100.00;100469.44;5047970;28;45453;-69
2022/10/01 00:05:37;;;;;;;;;2.00;2.00;;;;;15.51;100.00;100488.00;5050036;28;56472;-69
2022/10/01 00:08:02;;;;;;;;;2.33;2.33;;;;;15.50;100.00;100479.16;5055467;28;65327;-69
2022/10/01 00:10:30;;;;;;;;;2.00;2.00;;;;;15.46;100.00;100465.00;5055541;28;63352;-69
2022/10/01 00:12:55;;;;;;;;;2.33;1.00;;;;;15.42;100.00;100473.91;5047517;28;45457;-69
2022/10/01 00:15:21;;;;;;;;;6.67;2.00;;;;;15.38;100.00;100458.03;5052428;28;45639;-69
2022/10/01 00:17:47;;;;;;;;;3.67;2.33;;;;;15.38;100.00;100466.00;5056244;28;45444;-69
2022/10/01 00:20:12;;;;;;;;;1.00;1.00;;;;;15.38;100.00;100456.22;5052389;28;57881;-69
2022/10/01 00:22:38;;;;;;;;;1.00;1.00;;;;;15.41;100.00;100452.66;5051266;28;45391;-69
2022/10/01 00:25:04;;;;;;;;;2.00;2.00;;;;;15.45;100.00;100447.28;5055735;28;45400;-69
2022/10/01 00:27:30;;;;;;;;;2.00;2.00;;;;;15.46;100.00;100442.84;5055387;28;46855;-69
2022/10/01 00:29:56;;;;;;;;;0.00;0.00;;;;;15.48;100.00;100432.16;5056069;28;45264;-69
2022/10/01 00:32:21;;;;;;;;;1.00;1.00;;;;;15.51;100.00;100442.78;5055958;28;45521;-69
2022/10/01 00:34:47;;;;;;;;;1.67;1.67;;;;;15.49;100.00;100421.47;5052043;28;45769;-69
2022/10/01 00:37:13;;;;;;;;;2.00;2.00;;;;;15.53;100.00;100446.28;5055870;28;47504;-69
2022/10/01 00:39:39;;;;;;;;;2.00;1.00;;;;;15.53;100.00;100443.59;5050761;22;45843;-69
2022/10/01 00:42:16;;;;;;;;;1.00;1.00;;;;;15.48;100.00;100429.50;5031761;28;51132;-68
2022/10/01 00:44:44;;;;;;;;;2.33;1.00;;;;;15.47;100.00;100425.97;5049227;28;45437;-68
2022/10/01 00:47:21;;;;;;;;;1.67;1.67;;;;;15.47;100.00;100428.63;5035469;28;45664;-69
2022/10/01 00:49:49;;;;;;;;;1.00;1.00;;;;;15.48;100.00;100427.72;5044891;28;45520;-69
2022/10/01 00:52:18;;;;;;;;;1.67;1.00;;;;;15.44;100.00;100396.72;5035265;28;45372;-68
2022/10/01 00:54:46;;;;;;;;;1.00;1.00;;;;;15.45;100.00;100428.66;5042019;28;45469;-68
2022/10/01 00:57:15;;;;;;;;;2.33;0.00;;;;;15.43;100.00;100427.78;5055073;28;45865;-69
2022/10/01 00:59:40;;;;;;;;;1.00;1.00;;;;;15.40;100.00;100419.88;5037287;28;45481;-69
2022/10/01 01:02:05;;;;;;;;;2.00;2.00;;;;;15.36;100.00;100410.16;5039999;28;64437;-69
2022/10/01 01:04:31;;;;;;;;;1.00;1.00;;;;;15.35;100.00;100413.72;5042718;28;53691;-68
2022/10/01 01:06:59;;;;;;;;;1.00;1.00;;;;;15.31;100.00;100417.34;5042424;28;56428;-69
2022/10/01 01:09:30;;;;;;;;;1.00;1.00;;;;;15.28;100.00;100424.47;5041215;28;45473;-68
2022/10/01 01:12:11;;;;;;;;;0.33;0.33;;;;;15.25;100.00;100416.56;5038021;28;45429;-68
2022/10/01 01:14:56;;;;;;;;;1.00;1.00;;;;;15.23;100.00;100413.91;5037629;28;45403;-68
2022/10/01 01:17:33;;;;;;;;;1.67;1.67;;;;;15.19;100.00;100402.44;5034857;28;46119;-69
2022/10/01 01:20:17;;;;;;;;;1.00;1.00;;;;;15.22;100.00;100429.88;5018278;28;46339;-68
2022/10/01 01:22:49;;;;;;;;;1.00;1.00;;;;;15.19;100.00;100421.06;5035442;28;45446;-69
2022/10/01 01:25:17;;;;;;;;;2.00;1.00;;;;;15.18;100.00;100415.78;5041071;28;45296;-68
2022/10/01 01:28:08;;;;;;;;;1.00;1.00;;;;;15.22;100.00;100406.81;5036466;28;46429;-69
2022/10/01 01:30:37;;;;;;;;;1.00;1.00;;;;;15.20;100.00;100377.59;5044023;28;45280;-68
2022/10/01 01:33:10;;;;;;;;;1.00;1.00;;;;;15.25;100.00;100387.28;5041995;28;45407;-68
2022/10/01 01:36:06;;;;;;;;;4.00;1.00;;;;;15.25;100.00;100387.28;5038859;28;45227;-68
2022/10/01 01:38:38;;;;;;;;;1.00;1.00;;;;;15.25;100.00;100374.88;5036438;28;45588;-69
2022/10/01 01:41:04;;;;;;;;;1.00;1.00;;;;;15.27;100.00;100366.88;5026759;28;45398;-69
2022/10/01 01:43:33;;;;;;;;;0.00;0.00;;;;;15.26;100.00;100376.63;5044544;28;45403;-68
2022/10/01 01:46:00;;;;;;;;;0.00;0.00;;;;;15.29;100.00;100375.72;5056050;28;45403;-68
2022/10/01 01:48:28;;;;;;;;;1.00;1.00;;;;;15.30;100.00;100380.13;5050442;28;47075;-68
2022/10/01 01:50:59;;;;;;;;;0.33;0.33;;;;;15.33;100.00;100374.75;5046894;28;45643;-69
2022/10/01 01:53:25;;;;;;;;;0.00;0.00;;;;;15.34;100.00;100373.81;5057284;28;45546;-69
2022/10/01 01:55:51;;;;;;;;;0.67;0.67;;;;;15.32;100.00;100371.19;5047535;28;45405;-69
2022/10/01 01:58:18;;;;;;;;;1.33;0.00;;;;;15.33;100.00;100383.59;5047473;28;71803;-68
2022/10/01 02:00:45;;;;;;;;;0.33;0.00;;;;;15.34;100.00;100377.41;5038683;28;45439;-68
2022/10/01 02:03:10;;;;;;;;;0.00;0.00;;;;;15.37;100.00;100368.47;5056029;28;45338;-69
2022/10/01 02:05:49;;;;;;;;;0.00;0.00;;;;;15.43;100.00;100373.69;5047658;28;60083;-68
2022/10/01 02:08:42;;;;;;;;;0.00;0.00;;;;;15.46;100.00;100371.00;5037571;28;45532;-69
2022/10/01 02:11:11;;;;;;;;;0.00;0.00;;;;;15.48;100.00;100365.63;5034702;28;45528;-68
2022/10/01 02:13:51;;;;;;;;;0.00;0.00;;;;;15.53;100.00;100374.44;5037519;28;45401;-68
2022/10/01 02:16:34;;;;;;;;;0.00;0.00;;;;;15.52;100.00;100357.59;5057442;28;45434;-69
2022/10/01 02:19:03;;;;;;;;;0.00;0.00;;;;;15.54;100.00;100366.41;5064009;28;45857;-69
2022/10/01 02:21:52;;;;;;;;;0.00;0.00;;;;;15.59;100.00;100364.53;5058204;28;45532;-69
2022/10/01 02:24:18;;;;;;;;;0.00;0.00;;;;;15.62;100.00;100366.28;5047458;28;45387;-69
2022/10/01 02:26:46;;;;;;;;;0.00;0.00;;;;;15.63;100.00;100354.78;5040735;28;45428;-69
2022/10/01 02:29:15;;;;;;;;;1.00;0.00;;;;;15.62;100.00;100361.84;5038273;28;45664;-69
2022/10/01 02:31:40;;;;;;;;;0.00;0.00;;;;;15.64;100.00;100360.06;5038079;28;45498;-68
2022/10/01 02:34:07;;;;;;;;;1.00;0.00;;;;;15.66;100.00;100366.25;5048085;28;64850;-68
2022/10/01 02:36:34;;;;;;;;;0.00;0.00;;;;;15.66;100.00;100363.59;5056827;28;45366;-69
2022/10/01 02:39:01;;;;;;;;;0.00;0.00;;;;;15.68;100.00;100343.13;5039561;28;46110;-69
2022/10/01 02:41:32;;;;;;;;;0.00;0.00;;;;;15.70;100.00;100353.75;5042375;28;45560;-68
2022/10/01 02:44:26;;;;;;;;;0.00;0.00;;;;;15.77;100.00;100362.53;5040852;28;45664;-69
2022/10/01 02:47:06;;;;;;;;;0.00;0.00;;;;;15.78;100.00;100351.84;5053826;28;46561;-68
2022/10/01 02:49:32;;;;;;;;;0.00;0.00;;;;;15.78;100.00;100340.31;5054191;28;46207;-69
2022/10/01 02:51:59;;;;;;;;;0.00;0.00;;;;;15.82;100.00;100326.03;5036913;28;45422;-69
2022/10/01 02:54:37;;;;;;;;;0.00;0.00;;;;;15.84;100.00;100333.09;5042772;28;45548;-68
2022/10/01 02:59:46;;;;;;;;;0.00;0.00;;;;;15.90;100.00;100324.13;5037669;28;45405;-69
2022/10/01 03:02:11;;;;;;;;;0.00;0.00;;;;;15.91;100.00;100318.75;5038255;28;45527;-69
2022/10/01 03:04:37;;;;;;;;;0.00;0.00;;;;;15.93;100.00;100313.41;5043754;28;45514;-69
2022/10/01 03:07:03;;;;;;;;;0.00;0.00;;;;;15.96;100.00;100329.31;5038086;28;45391;-68
2022/10/01 03:09:33;;;;;;;;;0.00;0.00;;;;;15.96;100.00;100319.53;5057154;28;47459;-69
2022/10/01 03:11:59;;;;;;;;;0.00;0.00;;;;;15.94;100.00;100307.19;5042588;28;45483;-68
2022/10/01 03:14:25;;;;;;;;;0.00;0.00;;;;;15.93;100.00;100305.44;5033842;28;45552;-69
2022/10/01 03:16:51;;;;;;;;;0.00;0.00;;;;;15.98;100.00;100322.19;5037938;28;45431;-69
2022/10/01 03:19:16;;;;;;;;;0.00;0.00;;;;;16.00;100.00;100300.84;5039047;28;45894;-68
2022/10/01 03:21:42;;;;;;;;;0.00;0.00;;;;;16.03;100.00;100314.09;5046120;28;45255;-69
2022/10/01 03:24:07;;;;;;;;;0.67;0.67;;;;;16.03;100.00;100317.63;5039299;28;54276;-68
2022/10/01 03:26:34;;;;;;;;;0.00;0.00;;;;;16.01;100.00;100321.25;5041096;28;45437;-69
2022/10/01 03:29:00;;;;;;;;;0.00;0.00;;;;;16.04;100.00;100324.75;5045233;28;46638;-69
2022/10/01 03:31:25;;;;;;;;;0.00;0.00;;;;;16.05;100.00;100310.50;5047861;28;45286;-69
2022/10/01 03:33:51;;;;;;;;;0.00;0.00;;;;;16.07;100.00;100305.13;5032607;28;45592;-68
2022/10/01 03:36:16;;;;;;;;;0.00;0.00;;;;;16.08;100.00;100315.75;5038105;28;45391;-69
2022/10/01 03:38:41;;;;;;;;;0.00;0.00;;;;;16.12;100.00;100308.59;5048559;28;46991;-69
2022/10/01 03:41:07;;;;;;;;;0.00;0.00;;;;;16.12;100.00;100301.47;5054228;28;64882;-68
2022/10/01 03:43:32;;;;;;;;;0.00;0.00;;;;;16.13;100.00;100299.69;5037992;28;45383;-68
2022/10/01 03:45:57;;;;;;;;;0.00;0.00;;;;;16.08;100.00;100291.78;5040319;28;57986;-68
2022/10/01 03:48:23;;;;;;;;;0.00;0.00;;;;;16.09;100.00;100304.22;5051873;28;45686;-69
2022/10/01 03:50:56;;;;;;;;;0.00;0.00;;;;;16.08;100.00;100305.09;5046888;28;45568;-69
2022/10/01 03:53:22;;;;;;;;;0.00;0.00;;;;;16.05;100.00;100310.50;5033833;28;45360;-69
2022/10/01 03:55:48;;;;;;;;;0.00;0.00;;;;;16.07;100.00;100331.78;5044283;28;45479;-68
2022/10/01 03:58:13;;;;;;;;;0.00;0.00;;;;;16.06;100.00;100312.25;5037721;28;46158;-69
2022/10/01 04:00:39;;;;;;;;;0.00;0.00;;;;;16.07;100.00;100331.78;5053307;28;61021;-69
2022/10/01 04:03:05;;;;;;;;;0.00;0.00;;;;;16.06;100.00;100338.88;5050706;28;45363;-68
2022/10/01 04:05:30;;;;;;;;;0.00;0.00;;;;;16.07;100.00;100334.44;5038081;28;45602;-68
2022/10/01 04:07:58;;;;;;;;;0.00;0.00;;;;;16.08;100.00;100341.50;5037081;28;45622;-69
2022/10/01 04:10:24;;;;;;;;;0.00;0.00;;;;;16.10;100.00;100340.59;5049860;28;45327;-69
2022/10/01 04:12:49;;;;;;;;;0.00;0.00;;;;;16.13;100.00;100359.16;5036496;28;45508;-69
2022/10/01 04:15:15;;;;;;;;;0.00;0.00;;;;;16.15;100.00;100365.34;5036752;28;57507;-69
2022/10/01 04:17:41;;;;;;;;;0.00;0.00;;;;;16.16;100.00;100351.13;5037779;28;46396;-69
2022/10/01 04:20:07;;;;;;;;;0.00;0.00;;;;;16.17;100.00;100362.66;5051466;28;58824;-68
2022/10/01 04:22:37;;;;;;;;;0.33;0.00;;;;;16.21;100.00;100385.66;5051383;28;45562;-69
2022/10/01 04:25:03;;;;;;;;;0.00;0.00;;;;;16.20;100.00;100375.91;5029342;28;45210;-69
2022/10/01 04:27:28;;;;;;;;;0.00;0.00;;;;;16.20;100.00;100376.78;5036310;28;45426;-69
2022/10/01 04:29:53;;;;;;;;;0.00;0.00;;;;;16.25;100.00;100387.38;5036171;28;45508;-69
2022/10/01 04:32:20;;;;;;;;;0.00;0.00;;;;;16.26;100.00;100393.56;5038752;28;54768;-69
2022/10/01 04:34:51;;;;;;;;;0.00;0.00;;;;;16.25;100.00;100387.38;5034524;28;45419;-69
2022/10/01 04:37:17;;;;;;;;;0.00;0.00;;;;;16.26;100.00;100398.91;5036531;28;46879;-69
2022/10/01 04:39:42;;;;;;;;;0.00;0.00;;;;;16.24;100.00;100386.50;5051739;28;45435;-69
2022/10/01 04:42:08;;;;;;;;;0.00;0.00;;;;;16.29;100.00;100397.03;5041632;28;62926;-68
2022/10/01 04:44:33;;;;;;;;;0.00;0.00;;;;;16.28;100.00;100400.59;5052236;28;59525;-69
2022/10/01 04:46:58;;;;;;;;;0.00;0.00;;;;;16.30;100.00;100412.13;5054899;28;70487;-69
2022/10/01 04:49:24;;;;;;;;;0.00;0.00;;;;;16.34;100.00;100415.59;5054661;28;45457;-69
2022/10/01 04:51:49;;;;;;;;;0.00;0.00;;;;;16.33;100.00;100416.50;5035917;28;45540;-68
2022/10/01 04:54:14;;;;;;;;;0.00;0.00;;;;;16.37;100.00;100432.41;5034569;28;57647;-69
2022/10/01 04:56:40;;;;;;;;;0.00;0.00;;;;;16.39;100.00;100422.59;5035334;28;63759;-69
2022/10/01 04:59:05;;;;;;;;;0.00;0.00;;;;;16.41;100.00;100433.25;5035596;28;61206;-69
2022/10/01 05:01:31;;;;;;;;;0.00;0.00;;;;;16.45;100.00;100437.59;5036471;28;59012;-69
2022/10/01 05:03:56;;;;;;;;;0.00;0.00;;;;;16.46;100.00;100442.03;5042935;28;45296;-69
2022/10/01 05:06:22;;;;;;;;;0.00;0.00;;;;;16.48;100.00;100440.19;5035951;28;46428;-68
2022/10/01 05:08:48;;;;;;;;;0.00;0.00;;;;;16.46;100.00;100424.25;5035923;28;45442;-69
2022/10/01 05:11:14;;;;;;;;;0.00;0.00;;;;;16.50;100.00;100433.03;5035821;28;45513;-69
2022/10/01 05:13:40;;;;;;;;;0.00;0.00;;;;;16.49;100.00;100429.50;5045279;28;45556;-69
2022/10/01 05:16:06;;;;;;;;;0.00;0.00;;;;;16.52;100.00;100441.03;5037954;28;46647;-69
2022/10/01 05:18:31;;;;;;;;;0.00;0.00;;;;;16.53;100.00;100450.78;5034936;28;45402;-69
2022/10/01 05:20:57;;;;;;;;;0.00;0.00;;;;;16.54;100.00;100440.06;5038421;28;62980;-68
2022/10/01 05:23:22;;;;;;;;;0.00;0.00;;;;;16.58;100.00;100455.09;5042174;28;45319;-69
2022/10/01 05:25:48;;;;;;;;;0.00;0.00;;;;;16.60;100.00;100458.59;5051269;28;70910;-69
2022/10/01 05:28:15;;;;;;;;;0.00;0.00;;;;;16.60;100.00;100463.94;5055502;28;62909;-69
2022/10/01 05:30:40;;;;;;;;;0.00;0.00;;;;;16.64;100.00;100470.09;5059187;28;45344;-69
2022/10/01 05:33:05;;;;;;;;;0.00;0.00;;;;;16.64;100.00;100478.97;5056388;28;45317;-69
2022/10/01 05:35:31;;;;;;;;;1.00;0.00;;;;;16.64;100.00;100473.63;5052688;28;49593;-69
2022/10/01 05:37:58;;;;;;;;;0.00;0.00;;;;;16.64;100.00;100475.44;5047062;28;45403;-69
2022/10/01 05:40:27;;;;;;;;;0.00;0.00;;;;;16.64;100.00;100478.09;5047491;28;45347;-69
2022/10/01 05:42:54;;;;;;;;;0.00;0.00;;;;;16.64;100.00;100497.63;5038369;28;45504;-69
2022/10/01 05:45:21;;;;;;;;;0.00;0.00;;;;;16.63;100.00;100492.34;5040243;28;46368;-69
2022/10/01 05:47:47;;;;;;;;;0.00;0.00;;;;;16.67;100.00;100512.69;5039173;28;45522;-69
2022/10/01 05:50:13;;;;;;;;;0.00;0.00;;;;;16.68;100.00;100515.34;5041165;28;45355;-69
2022/10/01 05:52:41;;;;;;;;;0.67;0.00;;;;;16.68;100.00;100510.00;5059211;28;45342;-69
2022/10/01 05:55:07;;;;;;;;;0.00;0.00;;;;;16.67;100.00;100508.25;5041833;28;46904;-69
2022/10/01 05:57:32;;;;;;;;;1.00;0.00;;;;;16.71;100.00;100522.41;5038078;28;45442;-69
2022/10/01 05:59:57;;;;;;;;;0.00;0.00;;;;;16.69;100.00;100519.75;5038592;28;63310;-68
2022/10/01 06:02:23;;;;;;;;;0.00;0.00;;;;;16.70;100.00;100520.63;5044835;28;45586;-68
2022/10/01 06:04:48;;;;;;;;;0.67;0.00;;;;;16.74;100.00;100530.38;5038807;28;61243;-69
2022/10/01 06:07:14;;;;;;;;;0.00;0.00;;;;;16.72;100.00;100526.84;5037290;28;62215;-69
2022/10/01 06:09:39;;;;;;;;;0.00;0.00;;;;;16.75;100.00;100535.66;5052013;28;45578;-69
2022/10/01 06:12:08;;;;;;;;;0.00;0.00;;;;;16.75;100.00;100549.00;5040017;28;45467;-69
2022/10/01 06:14:34;;;;;;;;;0.00;0.00;;;;;16.75;100.00;100554.31;5044232;28;47804;-69
2022/10/01 06:16:59;;;;;;;;;0.00;0.00;;;;;16.75;100.00;100550.78;5045142;28;45287;-69
2022/10/01 06:19:24;;;;;;;;;0.00;0.00;;;;;16.80;100.00;100559.56;5037951;28;56912;-69
2022/10/01 06:21:50;;;;;;;;;0.00;0.00;;;;;16.83;100.00;100566.63;5037203;28;62362;-69
2022/10/01 06:24:16;;;;;;;;;0.00;0.00;;;;;16.82;100.00;100562.22;5037701;28;47495;-68
2022/10/01 06:26:42;;;;;;;;;0.00;0.00;;;;;16.82;100.00;100563.09;5047919;28;45557;-69
2022/10/01 06:29:08;;;;;;;;;0.00;0.00;;;;;16.84;100.00;100563.94;5038233;28;45306;-69
2022/10/01 06:31:34;;;;;;;;;1.00;0.00;;;;;16.83;100.00;100561.28;5036547;28;45637;-68
2022/10/01 06:33:59;;;;;;;;;1.00;0.00;;;;;16.86;100.00;100574.59;5037287;28;46130;-69
2022/10/01 06:36:24;;;;;;;;;0.00;0.00;;;;;16.88;100.00;100580.75;5042140;28;64752;-68
2022/10/01 06:38:50;;;;;;;;;0.00;0.00;;;;;16.86;100.00;100574.59;5042073;28;45350;-69
2022/10/01 06:41:16;;;;;;;;;0.00;0.00;;;;;16.88;100.00;100572.75;5039509;28;45571;-68
2022/10/01 06:43:41;;;;;;;;;0.33;0.00;;;;;16.89;100.00;100580.75;5043783;28;46609;-68
2022/10/01 06:46:06;;;;;;;;;2.00;0.00;;;;;16.92;100.00;100577.13;5037214;28;65039;-68
2022/10/01 06:48:34;;;;;;;;;0.33;0.00;;;;;16.94;100.00;100583.34;5040396;28;45426;-68
2022/10/01 06:50:59;;;;;;;;;0.00;0.00;;;;;16.93;100.00;100574.41;5044045;28;45427;-68
2022/10/01 06:53:26;;;;;;;;;2.00;0.00;;;;;16.94;100.00;100584.22;5034579;28;66247;-68
2022/10/01 06:55:52;;;;;;;;;0.00;0.00;;;;;16.95;100.00;100587.75;5043199;28;45561;-68
2022/10/01 06:58:19;;;;;;;;;1.00;0.00;;;;;16.94;100.00;100581.53;5042118;28;45363;-68
2022/10/01 07:00:45;;;;;;;;;0.00;0.00;;;;;16.96;100.00;100597.50;5033619;28;45486;-68
2022/10/01 07:03:14;;;;;;;;;1.00;0.00;;;;;16.98;100.00;100601.00;5048575;28;46238;-69
2022/10/01 07:05:39;;;;;;;;;0.00;0.00;;;;;16.99;100.00;100601.00;5039809;28;45711;-69
2022/10/01 07:08:05;;;;;;;;;0.00;0.00;;;;;17.01;100.00;100615.19;5046736;28;45440;-68
2022/10/01 07:10:47;;;;;;;;;6.67;0.00;;;;;17.01;100.00;100619.63;5043190;28;57399;-68
2022/10/01 07:13:19;;;;;;;;;0.00;0.00;;;;;17.01;100.00;100622.31;5048023;28;46822;-68
2022/10/01 07:15:45;;;;;;;;;0.67;0.00;;;;;17.01;100.00;100631.19;5051609;28;45447;-69
2022/10/01 07:18:11;;;;;;;;;3.00;0.00;;;;;17.01;100.00;100635.63;5034302;28;45213;-68
2022/10/01 07:20:41;;;;;;;;;0.00;0.00;;;;;17.03;100.00;100623.16;5036821;28;45394;-68
2022/10/01 07:23:12;;;;;;;;;2.00;0.00;;;;;17.02;100.00;100624.94;5041322;28;46567;-68
2022/10/01 07:25:39;;;;;;;;;4.00;0.33;;;;;17.05;100.00;100642.69;5029667;28;45289;-68
2022/10/01 07:28:05;;;;;;;;;1.67;1.00;;;;;17.08;100.00;100657.75;5051663;28;45358;-68
2022/10/01 07:30:31;;;;;;;;;1.00;0.00;;;;;17.11;100.00;100653.25;5050326;28;45442;-68
2022/10/01 07:32:57;;;;;;;;;2.33;1.00;;;;;17.11;100.00;100658.56;5037886;28;46752;-68
2022/10/01 07:35:23;;;;;;;;;0.67;0.00;;;;;17.12;100.00;100665.66;5058206;28;45487;-68
2022/10/01 07:37:49;;;;;;;;;2.00;0.33;;;;;17.17;100.00;100668.25;5054465;28;45548;-68
2022/10/01 07:40:15;;;;;;;;;0.00;0.00;;;;;17.20;100.00;100665.50;5049947;28;45510;-68
2022/10/01 07:42:41;;;;;;;;;2.00;0.00;;;;;17.21;100.00;100661.94;5027322;28;46586;-68
2022/10/01 07:45:07;;;;;;;;;1.33;0.00;;;;;17.26;100.00;100663.63;5046321;28;45337;-68
2022/10/01 07:47:33;;;;;;;;;1.00;1.00;;;;;17.29;100.00;100674.22;5053196;28;45417;-67
2022/10/01 07:49:58;;;;;;;;;2.00;0.00;;;;;17.33;100.00;100687.53;5037203;28;45419;-68
2022/10/01 07:52:23;;;;;;;;;0.00;0.00;;;;;17.36;100.00;100680.31;5046207;28;45849;-68
2022/10/01 07:54:48;;;;;;;;;0.00;0.00;;;;;17.39;100.00;100688.28;5049953;28;45272;-68
2022/10/01 07:57:14;;;;;;;;;0.00;0.00;;;;;17.42;100.00;100684.69;5036933;28;57634;-68
2022/10/01 07:59:40;;;;;;;;;2.00;0.33;;;;;17.46;100.00;100687.22;5037064;28;48822;-69
2022/10/01 08:02:13;;;;;;;;;1.00;1.00;;;;;17.50;100.00;100694.28;5038117;28;46581;-67
2022/10/01 08:07:22;;;;;;;;;2.00;0.33;;;;;17.55;100.00;100702.22;5035692;28;45338;-68
2022/10/01 08:09:48;;;;;;;;;0.00;0.00;;;;;17.60;100.00;100705.66;5055247;28;54069;-68
2022/10/01 08:12:13;;;;;;;;;2.00;1.00;;;;;17.63;100.00;100702.94;5041966;28;45607;-68
2022/10/01 08:14:39;;;;;;;;;0.00;0.00;;;;;17.67;100.00;100714.44;5056714;28;45433;-69
2022/10/01 08:17:04;;;;;;;;;2.00;1.00;;;;;17.65;100.00;100703.78;5041038;28;56713;-69
2022/10/01 08:19:29;;;;;;;;;1.67;1.00;;;;;17.67;100.00;100711.75;5039423;28;45658;-68
2022/10/01 08:21:55;;;;;;;;;0.33;0.33;;;;;17.70;100.00;100717.06;5035696;28;63872;-68
2022/10/01 08:24:20;;;;;;;;;1.67;0.33;;;;;17.67;100.00;100712.63;5029383;28;70630;-69
2022/10/01 08:26:54;;;;;;;;;1.00;1.00;;;;;17.69;100.00;100724.19;5028584;28;57241;-68
2022/10/01 08:29:20;;;;;;;;;2.67;0.33;;;;;17.71;100.00;100730.38;5032562;28;45441;-68
2022/10/01 08:31:45;;;;;;;;;0.00;0.00;;;;;17.70;100.00;100730.41;5041303;28;45955;-67
2022/10/01 08:34:11;;;;;;;;;4.00;1.00;;;;;17.70;100.00;100730.41;5034904;28;45418;-68
2022/10/01 08:36:36;;;;;;;;;5.00;0.67;;;;;17.72;100.00;100736.56;5050822;28;59772;-69
2022/10/01 08:39:02;;;;;;;;;0.00;0.00;;;;;17.73;100.00;100739.25;5056974;28;45585;-68
2022/10/01 08:41:48;;;;;;;;;0.00;0.00;;;;;17.76;100.00;100739.19;5055586;28;45884;-68
2022/10/01 08:44:26;;;;;;;;;1.33;1.00;;;;;17.79;100.00;100741.81;5036852;28;45150;-68
2022/10/01 08:46:54;;;;;;;;;4.00;1.00;;;;;17.83;100.00;100750.63;5035789;28;45253;-68
2022/10/01 08:49:30;;;;;;;;;4.33;0.33;;;;;17.86;100.00;100752.38;5035849;28;45493;-69
2022/10/01 08:52:12;;;;;;;;;3.33;1.67;;;;;17.92;100.00;100766.47;5035516;28;46799;-68
2022/10/01 08:54:54;;;;;;;;;1.00;1.00;;;;;17.97;100.00;100771.72;5035340;28;45226;-68
2022/10/01 08:57:26;;;;;;;;;4.00;2.00;;;;;17.99;100.00;100768.09;5035770;28;45396;-68
2022/10/01 08:59:57;;;;;;;;;1.67;1.67;;;;;18.04;100.00;100770.69;5035939;28;45272;-68
2022/10/01 09:02:32;;;;;;;;;3.33;1.00;;;;;18.06;100.00;100769.75;5035469;28;45674;-68
2022/10/01 09:05:09;;;;;;;;;1.67;1.00;;;;;18.08;100.00;100779.53;5037527;28;45439;-68
2022/10/01 09:08:06;;;;;;;;;3.00;1.00;;;;;18.14;100.00;100798.09;5035714;28;45380;-68
2022/10/01 09:10:55;;;;;;;;;2.00;2.00;;;;;18.17;100.00;100792.72;5036582;28;45522;-68
2022/10/01 09:13:20;;;;;;;;;1.00;1.00;;;;;18.18;100.00;100791.78;5035218;28;46307;-68
2022/10/01 09:15:56;;;;;;;;;1.33;0.00;;;;;18.21;100.00;100795.25;5036627;28;45214;-67
2022/10/01 09:18:41;;;;;;;;;4.00;2.33;;;;;18.24;100.00;100799.66;5035210;28;45510;-69
2022/10/01 09:21:24;;;;;;;;;4.00;1.00;;;;;18.23;100.00;100806.81;5036814;28;45358;-68
2022/10/01 09:24:21;;;;;;;;;2.67;0.00;;;;;18.25;100.00;100810.31;5035159;28;46283;-67
2022/10/01 09:26:50;;;;;;;;;2.00;1.00;;;;;18.29;100.00;100821.84;5035244;28;45272;-68
2022/10/01 09:29:23;;;;;;;;;1.33;1.00;;;;;18.28;100.00;100814.75;5051577;28;45392;-68
2022/10/01 09:31:51;;;;;;;;;2.00;1.00;;;;;18.31;100.00;100831.56;5034656;28;45433;-68
2022/10/01 09:34:37;;;;;;;;;3.00;2.00;;;;;18.32;100.00;100830.69;5050409;28;69263;-68
2022/10/01 09:37:25;;;;;;;;;6.00;1.00;;;;;18.31;100.00;100826.22;5055401;28;45355;-68
2022/10/01 09:40:14;;;;;;;;;2.00;0.67;;;;;18.32;100.00;100822.66;5049615;28;45153;-68
2022/10/01 09:42:40;;;;;;;;;1.00;1.00;;;;;18.34;100.00;100822.63;5045409;28;45481;-68
2022/10/01 09:45:07;;;;;;;;;2.00;2.00;;;;;18.36;100.00;100830.59;5048018;28;46579;-68
2022/10/01 09:47:33;;;;;;;;;0.00;0.00;;;;;18.35;100.00;100829.72;5056366;28;45359;-68
2022/10/01 09:49:59;;;;;;;;;7.00;1.00;;;;;18.36;100.00;100831.47;5050591;28;45643;-68
2022/10/01 09:52:35;;;;;;;;;4.67;1.00;;;;;18.40;100.00;100833.19;5055055;28;45398;-68
2022/10/01 09:55:06;;;;;;;;;0.00;0.00;;;;;18.44;100.00;100844.72;5052559;28;45770;-68
2022/10/01 09:57:35;;;;;;;;;2.67;1.00;;;;;18.48;100.00;100860.66;5037803;28;45327;-68
2022/10/01 10:00:09;;;;;;;;;3.00;1.67;;;;;18.48;100.00;100844.63;5034406;28;45452;-68
2022/10/01 10:02:38;;;;;;;;;3.33;2.00;;;;;18.53;100.00;100853.38;5036122;28;45358;-69
2022/10/01 10:05:18;;;;;;;;;4.67;1.33;;;;;18.57;100.00;100857.75;5035171;28;47706;-68
2022/10/01 10:07:49;;;;;;;;;6.33;1.33;;;;;18.64;100.00;100858.50;5038572;28;45532;-68
2022/10/01 10:10:34;;;;;;;;;3.33;1.00;;;;;18.72;100.00;100861.94;5039039;28;45372;-68
2022/10/01 10:13:09;;;;;;;;;1.00;0.00;;;;;18.77;100.00;100865.41;5035632;28;45331;-69
2022/10/01 10:15:36;;;;;;;;;4.00;0.33;;;;;18.84;100.00;100864.31;5039035;28;46426;-69
2022/10/01 10:18:06;;;;;;;;;2.00;0.33;;;;;18.93;100.00;100870.41;5039078;28;45248;-70
2022/10/01 10:20:38;;;;;;;;;0.67;0.00;;;;;19.01;100.00;100869.28;5029538;28;45360;-69
2022/10/01 10:23:15;;;;;;;;;2.67;0.33;;;;;19.06;100.00;100870.06;5038207;28;45174;-70
2022/10/01 10:25:41;;;;;;;;;2.00;0.33;;;;;19.10;100.00;100874.44;5037746;28;46844;-69
2022/10/01 10:28:19;;;;;;;;;2.00;1.00;;;;;19.17;100.00;100875.16;5038510;28;45216;-69
2022/10/01 10:30:45;;;;;;;;;5.33;1.00;;;;;19.21;100.00;100878.66;5032995;28;45539;-69
2022/10/01 10:33:12;;;;;;;;;5.00;1.00;;;;;19.24;100.00;100870.56;5046675;28;45446;-69
2022/10/01 10:35:38;;;;;;;;;4.00;2.33;;;;;19.28;100.00;100873.13;5048715;28;46805;-69
2022/10/01 10:38:04;;;;;;;;;1.67;1.33;;;;;19.33;100.00;100876.59;5037551;28;45264;-70
2022/10/01 10:40:39;;;;;;;;;5.33;1.00;;;;;19.41;100.00;100878.19;5038381;28;45490;-69
2022/10/01 10:43:04;;;;;;;;;2.00;0.33;;;;;19.44;100.00;100886.13;5044457;28;45305;-70
2022/10/01 10:45:34;;;;;;;;;5.00;0.33;;;;;19.51;100.00;100887.75;5054528;28;51124;-69
2022/10/01 10:48:02;;;;;;;;;0.67;0.67;;;;;19.54;100.00;100895.69;5057602;28;45533;-69
2022/10/01 10:50:35;;;;;;;;;3.33;0.33;;;;;19.59;100.00;100889.34;5056328;28;45338;-69
2022/10/01 10:53:43;;;;;;;;;3.67;0.67;;;;;19.63;100.00;100899.06;5058106;28;45311;-69
2022/10/01 10:56:21;;;;;;;;;1.67;0.67;;;;;19.62;100.00;100886.59;5023719;28;46566;-69
2022/10/01 10:58:47;;;;;;;;;0.00;0.00;;;;;19.68;100.00;100903.44;5037902;28;45394;-69
2022/10/01 11:01:18;;;;;;;;;0.33;0.00;;;;;19.72;100.00;100905.13;5035502;28;45636;-69
2022/10/01 11:04:02;;;;;;;;;0.00;0.00;;;;;19.72;100.00;100908.69;5036514;28;45566;-69
2022/10/01 11:06:29;;;;;;;;;1.33;1.33;;;;;19.72;100.00;100905.13;5051180;28;46180;-69
2022/10/01 11:09:03;;;;;;;;;5.00;0.67;;;;;19.73;100.00;100910.44;5037241;28;45422;-69
2022/10/01 11:12:16;;;;;;;;;0.00;0.00;;;;;19.77;100.00;100908.56;5036100;28;45581;-69
2022/10/01 11:15:08;;;;;;;;;0.67;0.00;;;;;19.82;100.00;100914.69;5026808;28;45320;-69
2022/10/01 11:18:27;;;;;;;;;5.00;0.67;;;;;19.83;100.00;100928.03;5017343;28;46541;-70
2022/10/01 11:21:10;;;;;;;;;2.00;2.00;;;;;19.79;100.00;100926.34;4971695;28;45505;-70
2022/10/01 11:24:00;;;;;;;;;4.00;1.00;;;;;19.80;100.00;100927.22;4972877;28;45498;-70
2022/10/01 11:26:36;;;;;;;;;3.67;0.67;;;;;19.80;100.00;100917.38;5016998;28;45645;-71
2022/10/01 11:29:38;;;;;;;;;2.67;0.00;;;;;19.90;100.00;100920.72;5030900;28;46145;-71
2022/10/01 11:32:38;;;;;;;;;3.67;1.00;;;;;19.96;100.00;100917.88;5032826;28;45379;-73
2022/10/01 11:35:10;;;;;;;;;1.33;1.00;;;;;20.08;100.00;100922.91;5034767;28;45452;-73